x

Santa Monica Basin - 33nm Wsw Of Santa Monica, Ca (46025) Wave Buoy

9:50 - Tue 2nd Jun 2015 All times are PDT. -7 hours from GMT.

  • Sig Wave height 3.0ft
  • Swell Direction
  • Peak Period 11s
  • Average Period 6s
  • Wind
    2mph, 4mph gusts
  • Sea Temp 64°f
  • Aire Temp 61°f
  • Sea Pressure 1016.1mb
  • Santa Monica Basin - 33nm Wsw Of Santa Monica, Ca
  • Santa Monica Basin - 33nm Wsw Of Santa Monica, Ca

More Historic Weather Station data

Upgrade to MSW Pro to gain access to the past 30 days of data for over 8000 Wavebouys and Weather Stations around the globe.

Join Pro

Comparision Forecast

View Surf forecast
   
mar 06/02 9:50 3ft 11s 6s 2 4 mph 1016.1mb 64f 61f
8:50 3.5ft 14s 6s 4
mph
1016mb 64f 61f
7:50 3.5ft 11s 6s 7 9 mph 1015.8mb 64f 61f
6:50 3.5ft 11s 6s 9 11 mph 1015.6mb 64f 60f
5:50 3.5ft 11s 6s 9 11 mph 1015.3mb 64f 61f
4:50 3.5ft 5s 6s 7 9 mph 1015.3mb 64f 62f
3:50 3.5ft 5s 6s 4 7 mph 1015.1mb 64f 61f
2:50 3.5ft 5s 5s 7 9 mph 1015.1mb 64f 62f
1:50 4.5ft 6s 5s 4 7 mph 1015.3mb 64f 62f
12:50 4.5ft 12s 5s 11 13 mph 1015.5mb 64f 61f
lun 06/01 11:50 4.5ft 6s 5s 13
mph
1015.7mb 64f 61f
10:50 5ft 6s 5s 11 13 mph 1015.8mb 64f 62f
9:50 4.5ft 6s 5s 16 20 mph 1015.5mb 64f 62f
8:50 4ft 5s 5s 18 20 mph 1015.1mb 64f 62f
7:50 3ft 12s 5s 16 18 mph 1015.1mb 64f 62f
6:50 3ft 12s 6s 13 16 mph 1015.1mb 65f 62f
5:50 3ft 13s 7s 11 13 mph 1015.3mb 65f 62f
4:50 3ft 13s 7s 11 13 mph 1015.7mb 65f 61f
3:50 2.5ft 14s 8s 11 13 mph 1016.2mb 65f 61f
2:50 3.5ft 13s 9s 11 13 mph 1016.5mb 65f 60f
1:50 3.5ft 12s 9s 9 11 mph 1016.7mb 65f 60f
12:50 2.5ft 14s 7s 7
mph
1017mb 65f 60f
11:50 3ft 13s 7s 4
mph
1017mb 65f 60f
10:50 3ft 12s 7s 2 4 mph 1017mb 64f 60f
9:50 3ft 12s 6s  -  2 mph 1016.7mb 64f 59f
8:50 3.5ft 13s 6s 2 4 mph 1016.4mb 64f 59f
7:50 3.5ft 15s 6s 2
mph
1016.2mb 64f 58f
6:50 3.5ft 11s 6s 4 7 mph 1015.8mb 64f 58f
5:50 3.5ft 13s 6s 4 7 mph 1015.3mb 64f 58f
4:50 3ft 13s 6s  -  7 mph 1015.1mb 64f 58f
3:50 3ft 15s 6s 2 4 mph 1015.1mb 64f 58f
2:50 3ft 13s 6s 7 11 mph 1015.1mb 64f 58f
1:50 2.5ft 12s 5s 2 7 mph 1015mb 64f 58f
12:50 3ft 14s 6s 7 9 mph 1014.9mb 64f 58f
dom 05/31 11:50 2.5ft 12s 6s 7 11 mph 1014.9mb 64f 58f
10:50 2.5ft 16s 5s 7 11 mph 1014.8mb 64f 58f
9:50 2.5ft 13s 6s 7 9 mph 1014.6mb 64f 59f
8:50 2.5ft 13s 7s 7 11 mph 1014mb 64f 58f
7:50 2.5ft 16s 7s 9 13 mph 1013.7mb 65f 59f
6:50 2.5ft 16s 6s 9 11 mph 1013.4mb 65f 60f
5:50 2.5ft 14s 7s 7 9 mph 1013.2mb 65f 60f
4:50 2.5ft 13s 7s 4 7 mph 1013.4mb 65f 60f
3:50 2.5ft 15s 8s 2 4 mph 1013.8mb 66f 60f
2:50 2.5ft 14s 8s 4 9 mph 1014.5mb 66f 60f
1:50 2.5ft 16s 8s 2 4 mph 1015.1mb 65f 60f
12:50 2.5ft 16s 8s 4 7 mph 1015.6mb 64f 59f
11:50 2.5ft 13s 7s 7 11 mph 1015.2mb 64f 59f
10:50 2.5ft 14s 7s 4 7 mph 1015.4mb 64f 59f
9:50 2.5ft 16s 7s 7 11 mph 1014.9mb 63f 59f
8:50 2.5ft 15s 7s 7 11 mph 1014.7mb 63f 58f
7:50 2.5ft 15s 6s 4 7 mph 1014.3mb 63f 58f
6:50 2.5ft 15s 6s 2 4 mph 1013.8mb 63f 58f
5:50 2.5ft 14s 7s 4 7 mph 1013.6mb 63f 58f
4:50 2.5ft 14s 7s 4 7 mph 1013.3mb 63f 58f
3:50 2.5ft 15s 7s 2 4 mph 1013.4mb 63f 58f
2:50 2.5ft 13s 7s 4 7 mph 1013.4mb 63f 58f
1:50 2.5ft 13s 7s 4 7 mph 1013.9mb 63f 57f
12:50 2.5ft 14s 7s 2 4 mph 1013.7mb 63f 57f
sáb 05/30 11:50 2.5ft 14s 7s 4 7 mph 1013.9mb 63f 57f
10:50 3ft 15s 6s 4 7 mph 1013.7mb 63f 58f
9:50 2.5ft 15s 7s 2 4 mph 1013.1mb 63f 58f
8:50 2.5ft 13s 6s 4 9 mph 1012.3mb 64f 58f
7:50 2.5ft 13s 7s 11 16 mph 1011.8mb 64f 58f
6:50 2.5ft 15s 7s 11 13 mph 1011.9mb 64f 59f
5:50 2.5ft 13s 7s 9 11 mph 1012mb 64f 60f
4:50 2.5ft 16s 7s 9 11 mph 1013.2mb 64f 60f
3:50 2.5ft 15s 8s 7 11 mph 1013.8mb 65f 60f
2:50 2.5ft 15s 8s 4 7 mph 1014.3mb 64f 60f
1:50 2.5ft 13s 8s 4 7 mph 1014.9mb 64f 59f
12:50 2.5ft 15s 8s 7 9 mph 1015.2mb 64f 59f
11:50 2.5ft 13s 8s 7 9 mph 1015.2mb 64f 59f
10:50 2.5ft 15s 7s 2 7 mph 1015.1mb 63f 59f
9:50 2.5ft 14s 7s 4 7 mph 1014.9mb 63f 59f
8:50 3ft 14s 7s 2 4 mph 1015mb 63f 58f
7:50 3ft 14s 7s 2 4 mph 1014.7mb 63f 58f
6:50 3.5ft 15s 7s 4 9 mph 1014.1mb 63f 58f
5:50 3ft 15s 6s 7 9 mph 1013.5mb 64f 58f
4:50 3.5ft 15s 7s 4 9 mph 1013mb 64f 58f
3:50 3.5ft 15s 7s 2 7 mph 1012.9mb 64f 58f
2:50 3.5ft 15s 6s 4 9 mph 1013.1mb 64f 58f
1:50 3.5ft 14s 7s 2 7 mph 1013.4mb 63f 59f
12:50 3ft 15s 6s  -  2 mph 1013.4mb 63f 59f
vie 05/29 11:50 3.5ft 15s 7s 4 7 mph 1013.8mb 63f 59f
10:50 3.5ft 15s 6s 4 7 mph 1013.6mb 63f 59f
9:50 3.5ft 15s 6s 4
mph
1013.3mb 63f 59f
8:50 3ft 15s 6s 4 7 mph 1012.9mb 63f 59f
7:50 3.5ft 15s 6s 7 11 mph 1012.7mb 63f 58f
6:50 3ft 16s 7s 13 16 mph 1012.6mb 63f 59f